createdAt,value
2017-05-20T00:01:53.658Z,5.30
2017-05-20T00:04:21.827Z,5.20
2017-05-20T00:06:48.829Z,5.20
2017-05-20T00:09:15.882Z,5.20
2017-05-20T00:11:44.130Z,5.20
2017-05-20T00:14:11.150Z,5.20
2017-05-20T00:16:38.197Z,5.20
2017-05-20T00:19:06.410Z,5.10
2017-05-20T00:21:33.404Z,5.10
2017-05-20T00:24:00.441Z,5.10
2017-05-20T00:26:28.654Z,5.10
2017-05-20T00:28:55.666Z,5.00
2017-05-20T00:31:22.673Z,5.00
2017-05-20T00:33:50.050Z,5.00
2017-05-20T00:36:17.057Z,4.90
2017-05-20T00:38:43.329Z,4.90
2017-05-20T00:41:10.669Z,4.90
2017-05-20T00:43:37.670Z,4.90
2017-05-20T00:46:04.665Z,5.00
2017-05-20T00:48:32.819Z,5.00
2017-05-20T00:50:59.825Z,5.00
2017-05-20T00:53:27.857Z,5.00
2017-05-20T00:55:55.206Z,5.00
2017-05-20T00:58:22.221Z,4.90
2017-05-20T01:00:49.226Z,5.00
2017-05-20T01:03:16.545Z,5.10
2017-05-20T01:05:43.549Z,5.20
2017-05-20T01:08:10.549Z,5.10
2017-05-20T01:10:37.898Z,5.10
2017-05-20T01:13:04.935Z,5.10
2017-05-20T01:15:31.940Z,5.10
2017-05-20T01:17:59.241Z,5.10
2017-05-20T01:20:26.272Z,4.90
2017-05-20T01:22:53.282Z,5.00
2017-05-20T01:25:20.585Z,5.10
2017-05-20T01:27:47.593Z,5.00
2017-05-20T01:30:14.598Z,5.10
2017-05-20T01:32:41.925Z,5.00
2017-05-20T01:35:08.956Z,5.10
2017-05-20T01:37:35.995Z,5.00
2017-05-20T01:40:04.106Z,5.00
2017-05-20T01:42:31.183Z,4.90
2017-05-20T01:44:58.211Z,4.90
2017-05-20T01:47:26.335Z,4.80
2017-05-20T01:49:53.334Z,4.80
2017-05-20T01:52:21.357Z,4.70
2017-05-20T01:54:49.401Z,4.60
2017-05-20T01:57:16.421Z,4.50
2017-05-20T01:59:43.426Z,4.40
2017-05-20T02:02:10.786Z,4.50
2017-05-20T02:04:37.785Z,4.40
2017-05-20T02:07:04.799Z,4.30
2017-05-20T02:09:32.151Z,4.30
2017-05-20T02:11:59.157Z,4.20
2017-05-20T02:14:26.172Z,4.10
2017-05-20T02:16:53.487Z,3.80
2017-05-20T02:19:20.492Z,3.80
2017-05-20T02:21:47.505Z,3.80
2017-05-20T02:24:14.834Z,3.70
2017-05-20T02:26:41.825Z,3.60
2017-05-20T02:29:08.846Z,3.50
2017-05-20T02:31:36.173Z,3.60
2017-05-20T02:34:03.184Z,3.50
2017-05-20T02:36:30.199Z,3.50
2017-05-20T02:38:57.529Z,3.50
2017-05-20T02:41:24.545Z,3.40
2017-05-20T02:43:51.565Z,3.30
2017-05-20T02:46:18.988Z,3.30
2017-05-20T02:48:46.001Z,3.30
2017-05-20T02:51:13.047Z,3.30
2017-05-20T02:53:40.421Z,3.20
2017-05-20T02:56:07.418Z,3.10
2017-05-20T02:58:34.443Z,3.20
2017-05-20T03:01:02.598Z,3.20
2017-05-20T03:03:29.605Z,3.10
2017-05-20T03:05:56.627Z,3.20
2017-05-20T03:08:23.921Z,3.20
2017-05-20T03:10:50.933Z,3.20
2017-05-20T03:13:17.943Z,3.30
2017-05-20T03:15:46.113Z,3.20
2017-05-20T03:18:13.133Z,3.10
2017-05-20T03:20:40.150Z,3.20
2017-05-20T03:23:07.489Z,3.10
2017-05-20T03:25:33.754Z,3.00
2017-05-20T03:28:00.753Z,3.00
2017-05-20T03:30:28.993Z,3.10
2017-05-20T03:32:56.038Z,3.10
2017-05-20T03:35:23.062Z,3.10
2017-05-20T03:37:51.089Z,3.10
2017-05-20T03:40:18.097Z,3.10
2017-05-20T03:42:47.231Z,3.00
2017-05-20T03:45:16.287Z,3.10
2017-05-20T03:47:43.398Z,3.20
2017-05-20T03:50:10.801Z,3.30
2017-05-20T03:52:37.813Z,3.30
2017-05-20T03:55:04.821Z,3.30
2017-05-20T03:57:32.135Z,3.30
2017-05-20T03:59:59.130Z,3.30
2017-05-20T04:02:25.413Z,3.30
2017-05-20T04:04:52.769Z,3.40
2017-05-20T04:07:19.773Z,3.40
2017-05-20T04:09:46.765Z,3.50
2017-05-20T04:12:14.845Z,3.60
2017-05-20T04:14:41.851Z,3.60
2017-05-20T04:17:08.856Z,3.60
2017-05-20T04:19:36.170Z,3.70
2017-05-20T04:22:03.167Z,3.80
2017-05-20T04:24:30.185Z,3.90
2017-05-20T04:26:57.514Z,4.00
2017-05-20T04:29:24.562Z,4.10
2017-05-20T04:31:51.569Z,4.20
2017-05-20T04:34:18.853Z,4.30
2017-05-20T04:36:45.857Z,4.30
2017-05-20T04:39:12.889Z,4.20
2017-05-20T04:41:40.207Z,4.20
2017-05-20T04:44:07.222Z,4.40
2017-05-20T04:46:34.229Z,4.40
2017-05-20T04:49:01.549Z,4.40
2017-05-20T04:51:28.550Z,4.40
2017-05-20T04:53:55.554Z,4.50
2017-05-20T04:56:22.898Z,4.60
2017-05-20T04:58:49.905Z,4.70
2017-05-20T05:01:16.911Z,4.80
2017-05-20T05:03:44.649Z,5.00
2017-05-20T05:06:11.645Z,5.10
2017-05-20T05:08:38.647Z,5.40
2017-05-20T05:11:05.990Z,5.70
2017-05-20T05:13:34.010Z,6.00
2017-05-20T05:16:01.005Z,6.40
2017-05-20T05:18:28.365Z,6.70
2017-05-20T05:20:55.357Z,7.00
2017-05-20T05:23:22.354Z,7.20
2017-05-20T05:25:49.722Z,7.40
2017-05-20T05:28:16.717Z,7.50
2017-05-20T05:30:43.709Z,7.70
2017-05-20T05:33:11.901Z,7.70
2017-05-20T05:35:38.904Z,7.70
2017-05-20T05:38:05.909Z,7.90
2017-05-20T05:40:33.282Z,7.90
2017-05-20T05:43:00.285Z,8.10
2017-05-20T05:45:27.347Z,8.10
2017-05-20T05:47:54.670Z,8.10
2017-05-20T05:50:21.673Z,8.20
2017-05-20T05:52:48.718Z,8.30
2017-05-20T05:55:16.859Z,8.40
2017-05-20T05:57:43.891Z,8.50
2017-05-20T06:00:10.899Z,8.70
2017-05-20T06:02:38.181Z,8.70
2017-05-20T06:05:05.186Z,8.90
2017-05-20T06:07:32.186Z,9.10
2017-05-20T06:10:00.454Z,9.20
2017-05-20T06:12:27.462Z,9.40
2017-05-20T06:14:54.522Z,9.50
2017-05-20T06:17:21.889Z,9.50
2017-05-20T06:19:48.891Z,9.60
2017-05-20T06:22:15.893Z,9.50
2017-05-20T06:24:43.238Z,9.80
2017-05-20T06:27:10.238Z,9.80
2017-05-20T06:29:37.273Z,10.10
2017-05-20T06:32:04.587Z,10.20
2017-05-20T06:34:31.585Z,9.90
2017-05-20T06:36:59.605Z,10.30
2017-05-20T06:39:26.955Z,10.50
2017-05-20T06:41:53.957Z,10.50
2017-05-20T06:44:21.985Z,10.80
2017-05-20T06:46:50.086Z,10.70
2017-05-20T06:49:17.086Z,10.90
2017-05-20T06:51:44.078Z,10.90
2017-05-20T06:54:11.398Z,11.00
2017-05-20T06:56:38.402Z,11.20
2017-05-20T06:59:04.657Z,11.20
2017-05-20T07:01:32.766Z,11.30
2017-05-20T07:03:59.782Z,11.40
2017-05-20T07:06:26.774Z,11.20
2017-05-20T07:08:54.090Z,11.30
2017-05-20T07:11:21.106Z,11.40
2017-05-20T07:13:48.110Z,11.50
2017-05-20T07:16:16.280Z,11.30
2017-05-20T07:18:43.327Z,11.40
2017-05-20T07:21:11.376Z,11.10
2017-05-20T07:23:39.641Z,10.80
2017-05-20T07:26:06.647Z,11.00
2017-05-20T07:28:34.680Z,11.50
2017-05-20T07:31:02.002Z,11.70
2017-05-20T07:33:28.993Z,11.50
2017-05-20T07:35:55.993Z,11.60
2017-05-20T07:38:23.347Z,12.20
2017-05-20T07:40:50.363Z,12.30
2017-05-20T07:43:17.375Z,11.90
2017-05-20T07:45:44.698Z,12.70
2017-05-20T07:48:11.694Z,12.90
2017-05-20T07:50:38.689Z,12.70
2017-05-20T07:53:06.882Z,12.80
2017-05-20T07:55:33.881Z,12.90
2017-05-20T07:58:00.880Z,12.50
2017-05-20T08:00:28.894Z,12.50
2017-05-20T08:02:55.898Z,12.60
2017-05-20T08:05:22.902Z,12.60
2017-05-20T08:07:51.146Z,12.70
2017-05-20T08:10:18.139Z,13.40
2017-05-20T08:12:45.149Z,13.30
2017-05-20T08:15:12.418Z,13.30
2017-05-20T08:17:39.406Z,12.70
2017-05-20T08:20:07.430Z,12.70
2017-05-20T08:22:35.526Z,13.10
2017-05-20T08:25:02.517Z,13.20
2017-05-20T08:27:29.518Z,13.60
2017-05-20T08:29:56.830Z,13.60
2017-05-20T08:32:23.822Z,14.10
2017-05-20T08:34:50.821Z,14.30
2017-05-20T08:37:18.152Z,14.30
2017-05-20T08:39:45.165Z,13.80
2017-05-20T08:42:12.155Z,13.40
2017-05-20T08:44:40.311Z,13.80
2017-05-20T08:47:07.314Z,14.40
2017-05-20T08:49:34.331Z,14.80
2017-05-20T08:52:01.753Z,15.10
2017-05-20T08:54:28.769Z,14.80
2017-05-20T08:56:55.759Z,13.80
2017-05-20T08:59:23.162Z,13.50
2017-05-20T09:01:50.166Z,13.00
2017-05-20T09:04:17.177Z,13.80
2017-05-20T09:06:44.509Z,14.60
2017-05-20T09:09:11.507Z,14.50
2017-05-20T09:11:38.509Z,14.30
2017-05-20T09:14:05.858Z,13.90
2017-05-20T09:16:32.853Z,14.80
2017-05-20T09:18:59.849Z,14.70
2017-05-20T09:21:27.198Z,15.20
2017-05-20T09:23:54.192Z,15.20
2017-05-20T09:26:21.191Z,14.20
2017-05-20T09:28:49.438Z,14.00
2017-05-20T09:31:16.421Z,14.20
2017-05-20T09:33:43.426Z,14.60
2017-05-20T09:36:11.535Z,14.70
2017-05-20T09:38:38.526Z,14.90
2017-05-20T09:41:05.533Z,15.20
2017-05-20T09:43:33.537Z,15.50
2017-05-20T09:46:00.546Z,15.80
2017-05-20T09:48:27.542Z,16.00
2017-05-20T09:50:54.893Z,16.40
2017-05-20T09:53:21.902Z,16.10
2017-05-20T09:55:48.902Z,15.70
2017-05-20T09:58:17.050Z,15.70
2017-05-20T10:00:44.078Z,15.10
2017-05-20T10:03:11.064Z,14.70
2017-05-20T10:05:38.470Z,15.70
2017-05-20T10:08:05.522Z,16.50
2017-05-20T10:10:32.546Z,15.70
2017-05-20T10:12:59.893Z,14.90
2017-05-20T10:15:26.886Z,14.40
2017-05-20T10:17:53.874Z,14.30
2017-05-20T10:20:21.242Z,14.40
2017-05-20T10:22:48.238Z,14.40
2017-05-20T10:25:15.233Z,15.40
2017-05-20T10:27:42.589Z,16.00
2017-05-20T10:30:09.609Z,16.60
2017-05-20T10:32:36.603Z,17.10
2017-05-20T10:35:03.931Z,15.80
2017-05-20T10:37:30.930Z,15.50
2017-05-20T10:39:57.930Z,15.20
2017-05-20T10:42:25.277Z,15.00
2017-05-20T10:44:52.278Z,15.00
2017-05-20T10:47:19.281Z,15.00
2017-05-20T10:49:46.620Z,15.00
2017-05-20T10:52:14.653Z,14.90
2017-05-20T10:54:41.653Z,15.20
2017-05-20T10:57:08.982Z,15.30
2017-05-20T10:59:35.985Z,16.00
2017-05-20T11:02:02.983Z,16.00
2017-05-20T11:04:30.329Z,15.70
2017-05-20T11:06:57.326Z,15.80
2017-05-20T11:09:24.319Z,16.60
2017-05-20T11:11:51.661Z,16.90
2017-05-20T11:14:18.662Z,16.30
2017-05-20T11:16:45.661Z,15.40
2017-05-20T11:19:13.047Z,15.30
2017-05-20T11:21:40.041Z,15.40
2017-05-20T11:24:07.052Z,15.40
2017-05-20T11:26:34.369Z,15.60
2017-05-20T11:29:01.380Z,15.00
2017-05-20T11:31:28.378Z,15.90
2017-05-20T11:33:55.714Z,16.50
2017-05-20T11:36:22.705Z,16.50
2017-05-20T11:38:49.694Z,16.90
2017-05-20T11:41:17.061Z,17.30
2017-05-20T11:43:44.057Z,16.80
2017-05-20T11:46:11.073Z,16.20
2017-05-20T11:48:39.138Z,16.00
2017-05-20T11:51:06.133Z,16.10
2017-05-20T11:53:33.139Z,16.30
2017-05-20T11:56:00.465Z,15.60
2017-05-20T11:58:27.473Z,15.50
2017-05-20T12:00:53.742Z,15.50
2017-05-20T12:03:21.093Z,15.40
2017-05-20T12:05:48.102Z,15.50
2017-05-20T12:08:15.094Z,15.70
2017-05-20T12:10:42.444Z,15.40
2017-05-20T12:13:09.441Z,15.80
2017-05-20T12:15:36.435Z,16.40
2017-05-20T12:18:03.801Z,16.80
2017-05-20T12:20:30.875Z,17.70
2017-05-20T12:22:57.870Z,17.50
2017-05-20T12:25:25.229Z,17.20
2017-05-20T12:27:52.235Z,17.20
2017-05-20T12:30:19.285Z,16.00
2017-05-20T12:32:47.425Z,15.70
2017-05-20T12:35:14.429Z,16.00
2017-05-20T12:37:42.429Z,15.50
2017-05-20T12:40:10.597Z,15.60
2017-05-20T12:42:37.610Z,15.70
2017-05-20T12:45:04.610Z,15.70
2017-05-20T12:47:33.621Z,15.70
2017-05-20T12:49:59.893Z,15.60
2017-05-20T12:52:26.931Z,15.90
2017-05-20T12:54:54.303Z,16.10
2017-05-20T12:57:21.325Z,16.30
2017-05-20T12:59:48.317Z,16.80
2017-05-20T13:02:15.641Z,16.60
2017-05-20T13:04:43.655Z,17.00
2017-05-20T13:07:10.657Z,16.90
2017-05-20T13:09:38.013Z,17.80
2017-05-20T13:12:05.014Z,17.90
2017-05-20T13:14:32.010Z,19.00
2017-05-20T13:16:59.369Z,20.40
2017-05-20T13:19:26.370Z,18.40
2017-05-20T13:21:53.374Z,18.00
2017-05-20T13:24:21.411Z,19.20
2017-05-20T13:26:48.545Z,19.00
2017-05-20T13:29:15.557Z,19.10
2017-05-20T13:31:43.766Z,20.10
2017-05-20T13:34:10.775Z,19.50
2017-05-20T13:36:37.778Z,19.90
2017-05-20T13:41:24.382Z,20.60
2017-05-20T13:43:51.386Z,21.90
2017-05-20T13:46:19.398Z,21.70
2017-05-20T13:48:47.405Z,20.70
2017-05-20T13:51:14.413Z,19.60
2017-05-20T13:53:41.427Z,19.90
2017-05-20T13:56:09.688Z,21.50
2017-05-20T13:58:36.683Z,21.80
2017-05-20T14:01:03.689Z,20.80
2017-05-20T14:03:31.842Z,19.20
2017-05-20T14:05:58.844Z,18.90
2017-05-20T14:08:25.837Z,18.10
2017-05-20T14:10:53.170Z,17.10
2017-05-20T14:13:20.173Z,17.50
2017-05-20T14:15:47.169Z,17.10
2017-05-20T14:18:14.508Z,17.20
2017-05-20T14:20:41.513Z,17.80
2017-05-20T14:23:08.517Z,21.60
2017-05-20T14:25:36.879Z,21.70
2017-05-20T14:28:03.874Z,21.60
2017-05-20T14:30:30.889Z,20.40
2017-05-20T14:32:58.222Z,20.80
2017-05-20T14:35:26.241Z,19.60
2017-05-20T14:37:53.239Z,18.40
2017-05-20T14:40:20.585Z,16.80
2017-05-20T14:42:47.582Z,16.40
2017-05-20T14:45:14.573Z,16.30
2017-05-20T14:47:42.960Z,16.30
2017-05-20T14:50:09.969Z,16.30
2017-05-20T14:52:36.970Z,16.20
2017-05-20T14:55:05.206Z,16.00
2017-05-20T14:57:31.478Z,15.90
2017-05-20T14:59:58.481Z,15.40
2017-05-20T15:02:25.853Z,15.50
2017-05-20T15:04:52.854Z,15.40
2017-05-20T15:07:19.857Z,15.10
2017-05-20T15:09:48.034Z,15.10
2017-05-20T15:12:15.034Z,15.00
2017-05-20T15:14:42.031Z,15.10
2017-05-20T15:17:10.305Z,15.20
2017-05-20T15:19:37.406Z,15.40
2017-05-20T15:22:05.420Z,15.20
2017-05-20T15:24:33.608Z,15.40
2017-05-20T15:27:00.604Z,15.50
2017-05-20T15:29:28.294Z,15.40
2017-05-20T15:31:56.333Z,16.40
2017-05-20T15:34:23.326Z,21.10
2017-05-20T15:36:50.649Z,25.00
2017-05-20T15:39:16.930Z,24.90
2017-05-20T15:41:43.931Z,22.00
2017-05-20T15:44:11.293Z,21.90
2017-05-20T15:46:38.303Z,20.10
2017-05-20T15:49:05.302Z,18.30
2017-05-20T15:51:33.525Z,19.80
2017-05-20T15:54:00.538Z,18.20
2017-05-20T15:56:27.526Z,16.90
2017-05-20T15:58:54.805Z,16.20
2017-05-20T16:01:21.827Z,16.20
2017-05-20T16:03:48.830Z,17.10
2017-05-20T16:06:16.241Z,18.60
2017-05-20T16:08:43.233Z,17.90
2017-05-20T16:11:09.509Z,17.80
2017-05-20T16:13:36.869Z,17.40
2017-05-20T16:16:03.866Z,17.30
2017-05-20T16:18:30.857Z,17.50
2017-05-20T16:20:58.216Z,20.00
2017-05-20T16:23:26.231Z,20.80
2017-05-20T16:25:53.238Z,18.80
2017-05-20T16:28:20.594Z,17.90
2017-05-20T16:30:47.593Z,17.40
2017-05-20T16:33:14.603Z,19.20
2017-05-20T16:35:42.871Z,24.00
2017-05-20T16:38:09.874Z,25.90
2017-05-20T16:40:36.879Z,27.30
2017-05-20T16:43:05.144Z,24.10
2017-05-20T16:45:32.145Z,22.90
2017-05-20T16:47:59.151Z,21.60
2017-05-20T16:50:27.298Z,21.60
2017-05-20T16:52:54.294Z,20.00
2017-05-20T16:55:22.305Z,19.30
2017-05-20T16:57:50.364Z,20.40
2017-05-20T17:00:17.374Z,21.40
2017-05-20T17:02:44.374Z,19.50
2017-05-20T17:05:11.705Z,18.60
2017-05-20T17:07:38.701Z,16.90
2017-05-20T17:10:05.697Z,15.80
2017-05-20T17:12:33.898Z,15.20
2017-05-20T17:15:00.901Z,15.00
2017-05-20T17:17:27.903Z,15.10
2017-05-20T17:19:56.058Z,14.90
2017-05-20T17:22:23.054Z,15.00
2017-05-20T17:24:50.070Z,14.80
2017-05-20T17:27:18.185Z,14.50
2017-05-20T17:29:45.191Z,14.30
2017-05-20T17:32:13.218Z,14.20
2017-05-20T17:34:41.509Z,14.10
2017-05-20T17:37:08.497Z,13.80
2017-05-20T17:39:35.494Z,13.70
2017-05-20T17:42:02.841Z,13.50
2017-05-20T17:44:29.851Z,13.40
2017-05-20T17:46:56.846Z,13.30
2017-05-20T17:49:24.947Z,13.30
2017-05-20T17:51:51.953Z,13.30
2017-05-20T17:54:18.981Z,13.20
2017-05-20T17:56:46.358Z,13.30
2017-05-20T17:59:13.358Z,13.20
2017-05-20T18:01:40.370Z,13.10
2017-05-20T18:04:07.742Z,13.20
2017-05-20T18:06:34.739Z,13.10
2017-05-20T18:09:01.774Z,13.10
2017-05-20T18:11:29.150Z,12.90
2017-05-20T18:13:56.155Z,12.90
2017-05-20T18:16:23.182Z,12.80
2017-05-20T18:18:50.613Z,12.80
2017-05-20T18:21:17.613Z,12.70
2017-05-20T18:23:44.610Z,12.60
2017-05-20T18:26:11.938Z,12.70
2017-05-20T18:28:38.941Z,12.70
2017-05-20T18:31:05.966Z,12.70
2017-05-20T18:33:33.295Z,12.70
2017-05-20T18:36:00.297Z,12.60
2017-05-20T18:38:27.298Z,12.70
2017-05-20T18:40:54.633Z,12.60
2017-05-20T18:43:22.645Z,12.60
2017-05-20T18:45:49.658Z,12.50
2017-05-20T18:48:16.969Z,12.50
2017-05-20T18:50:43.967Z,12.50
2017-05-20T18:53:10.961Z,12.40
2017-05-20T18:55:39.100Z,12.30
2017-05-20T18:58:06.097Z,12.30
2017-05-20T19:00:33.112Z,12.30
2017-05-20T19:03:01.375Z,12.20
2017-05-20T19:05:28.425Z,12.20
2017-05-20T19:07:55.421Z,12.10
2017-05-20T19:10:23.481Z,12.10
2017-05-20T19:12:50.476Z,12.00
2017-05-20T19:15:17.494Z,12.00
2017-05-20T19:17:46.708Z,12.00
2017-05-20T19:20:13.812Z,12.00
2017-05-20T19:22:46.036Z,11.90
2017-05-20T19:25:13.457Z,11.90
2017-05-20T19:27:39.710Z,11.90
2017-05-20T19:30:07.575Z,11.90
2017-05-20T19:32:34.906Z,11.90
2017-05-20T19:35:01.914Z,11.80
2017-05-20T19:37:28.911Z,11.90
2017-05-20T19:39:56.986Z,11.90
2017-05-20T19:42:23.990Z,11.80
2017-05-20T19:44:50.991Z,11.80
2017-05-20T19:47:19.037Z,11.70
2017-05-20T19:49:46.047Z,11.70
2017-05-20T19:52:13.045Z,11.70
2017-05-20T19:54:41.214Z,11.60
2017-05-20T19:57:08.222Z,11.50
2017-05-20T19:59:35.234Z,11.50
2017-05-20T20:02:03.258Z,11.60
2017-05-20T20:04:30.270Z,11.50
2017-05-20T20:06:57.273Z,11.50
2017-05-20T20:09:25.548Z,11.50
2017-05-20T20:11:52.613Z,11.50
2017-05-20T20:14:19.623Z,11.50
2017-05-20T20:16:46.965Z,11.60
2017-05-20T20:19:13.975Z,11.60
2017-05-20T20:21:40.272Z,11.50
2017-05-20T20:24:06.874Z,11.60
2017-05-20T20:26:33.898Z,11.80
2017-05-20T20:29:00.894Z,11.70
2017-05-20T20:31:28.234Z,11.70
2017-05-20T20:33:55.254Z,11.70
2017-05-20T20:36:22.264Z,11.70
2017-05-20T20:38:49.574Z,11.70
2017-05-20T20:41:16.574Z,11.70
2017-05-20T20:43:43.574Z,11.60
2017-05-20T20:46:10.926Z,11.60
2017-05-20T20:48:38.937Z,11.50
2017-05-20T20:51:05.953Z,11.50
2017-05-20T20:53:33.233Z,11.50
2017-05-20T20:56:00.237Z,11.40
2017-05-20T20:58:28.256Z,11.40
2017-05-20T21:00:55.553Z,11.40
2017-05-20T21:03:22.563Z,11.40
2017-05-20T21:05:49.584Z,11.40
2017-05-20T21:08:17.118Z,11.30
2017-05-20T21:10:44.110Z,11.30
2017-05-20T21:13:11.107Z,11.20
2017-05-20T21:15:38.446Z,11.10
2017-05-20T21:18:05.445Z,11.10
2017-05-20T21:20:32.446Z,11.00
2017-05-20T21:22:59.794Z,11.00
2017-05-20T21:25:26.797Z,10.90
2017-05-20T21:27:53.791Z,10.80
2017-05-20T21:30:22.030Z,10.80
2017-05-20T21:32:48.298Z,10.80
2017-05-20T21:35:15.289Z,10.60
2017-05-20T21:37:41.834Z,10.60
2017-05-20T21:40:08.848Z,10.50
2017-05-20T21:42:35.854Z,10.50
2017-05-20T21:45:03.219Z,10.60
2017-05-20T21:47:30.224Z,10.60
2017-05-20T21:49:57.239Z,10.60
2017-05-20T21:52:24.563Z,10.60
2017-05-20T21:54:51.557Z,10.50
2017-05-20T21:57:18.557Z,10.50
2017-05-20T21:59:45.917Z,10.50
2017-05-20T22:02:12.946Z,10.50
2017-05-20T22:04:39.958Z,10.40
2017-05-20T22:07:08.176Z,10.40
2017-05-20T22:09:35.190Z,10.30
2017-05-20T22:12:02.187Z,10.30
2017-05-20T22:14:29.505Z,10.30
2017-05-20T22:16:56.506Z,10.40
2017-05-20T22:19:22.754Z,10.30
2017-05-20T22:21:50.957Z,10.40
2017-05-20T22:24:17.974Z,10.40
2017-05-20T22:26:44.973Z,10.40
2017-05-20T22:29:13.201Z,10.30
2017-05-20T22:31:40.189Z,10.20
2017-05-20T22:34:07.190Z,10.20
2017-05-20T22:36:34.493Z,10.20
2017-05-20T22:39:01.502Z,10.20
2017-05-20T22:41:28.493Z,10.10
2017-05-20T22:43:56.769Z,10.10
2017-05-20T22:46:23.769Z,10.10
2017-05-20T22:48:50.778Z,10.20
2017-05-20T22:51:18.805Z,10.10
2017-05-20T22:53:45.815Z,10.10
2017-05-20T22:56:12.818Z,10.10
2017-05-20T22:58:41.118Z,10.20
2017-05-20T23:01:07.362Z,10.10
2017-05-20T23:03:34.362Z,10.20
2017-05-20T23:06:01.706Z,10.20
2017-05-20T23:08:28.721Z,10.30
2017-05-20T23:10:55.734Z,10.30
2017-05-20T23:13:23.014Z,10.20
2017-05-20T23:15:50.015Z,10.20
2017-05-20T23:18:17.013Z,10.20
2017-05-20T23:20:44.361Z,10.10
2017-05-20T23:23:11.359Z,10.10
2017-05-20T23:25:37.633Z,10.00
2017-05-20T23:28:05.641Z,10.10
2017-05-20T23:30:32.650Z,10.00
2017-05-20T23:32:59.642Z,9.90
2017-05-20T23:35:27.701Z,9.90
2017-05-20T23:37:54.701Z,9.90
2017-05-20T23:40:21.701Z,9.80
2017-05-20T23:42:48.294Z,9.80
2017-05-20T23:45:15.307Z,9.70
2017-05-20T23:47:42.305Z,9.70
2017-05-20T23:50:10.570Z,9.60
2017-05-20T23:52:37.573Z,9.60
2017-05-20T23:55:04.582Z,9.50
2017-05-20T23:57:31.934Z,9.60
2017-05-20T23:59:58.198Z,9.50
